New Shoreham, Rhode Island
Current Conditions -  °F | °C
As of 1:35 PM on Thursday 27 Nov 2014 (Local Time) from KBID Reporting Station
Overcast Overcast  
Wind Chill: 36°   Ceiling: 2200
Heat Index: 39°   Visibility: 10mi
Dew Point: 30°   Wind: 5mph
Humidity: 70%   Direction: 280°W
Pressure: 29.94"   Gusts: NA
Location:  41.1768°N, 71.5785°W
Report Text: KBID 271835Z AUTO 28004KT 10SM BKN022 OVC029 04/M01 A2994 RMK AO1
Loading
Personal Weather Stations






























Interactive Weather Map New forecast layout! Learn more

10-Day Weather Forecast

Advertisements
Track Severe Weather on mobile